Chesapeake, VA (23320)

10:57 AM EDT on August 27, 2016 (GMT -0400)
South Greenbrier | | Change Station

Elev 33 ft 36.74 °N, 76.22 °W | Updated 22 seconds ago

Scattered Clouds
Scattered Clouds
90.6 °F
Feels Like 99 °F
N
2.0
Wind Variable Wind from ENE
Gusts 5.0 mph

Today
High -- | Low -- °F
--% Chance of Precip.
Yesterday
High -- | Low -- °F
Precip. -- in
Pressure 30.12 in
Visibility 10.0 miles
Clouds Scattered Clouds 4000 ft
Heat Index 99 °F
Dew Point 73 °F
Humidity 57%
Rainfall 0.00 in
Snow Depth Not available.
6:32 AM 7:39 PM
Waning Crescent, 24% visible
METAR KCPK 271435Z AUTO 07007KT 10SM SCT040 32/22 A3012 RMK AO2 T03180218
Pressure 30.12 in
Visibility 10.0 miles
Clouds Scattered Clouds 4000 ft
Heat Index 99 °F
Dew Point 73 °F
Humidity 57%
Rainfall 0.00 in
Snow Depth Not available.
6:32 AM 7:39 PM
Waning Crescent, 24% visible
METAR KCPK 271435Z AUTO 07007KT 10SM SCT040 32/22 A3012 RMK AO2 T03180218

10-Day Weather Forecast

Almanac

Astronomy

Aug. 27, 2016 Rise Set
Actual Time
Civil Twilight
Nautical Twilight
Astronomical Twilight
Moon
Length of Visible Light
Length of Day
Tomorrow will be .
, % of the Moon is Illuminated

Today's Extremes

State Highs State Lows

Community

WunderPhotos

Upload Photos

1,935,344 photos uploaded!

WunderBlog® & News

Nearby

Air Quality

  Air Quality AQ Index Pollutant
Not available.

Snow Depth

Station Depth Elevation

Earthquake Activity

City Distance Mag. Time & Date
Minimum magnitude displayed is 2.5.

Coastal Water Temperatures

Place Temperature

Stations

Nearby Weather Stations

Station Location Temp. Windchill Dew Point Humidity Wind Precip. Elev Updated Type
                   

Watches & Warnings

There are currently no watches in effect.